sensor_id;sensor_type;location;lat;lon;timestamp;P1;durP1;ratioP1;P2;durP2;ratioP2
27684;SDS011;46113;50.130;8.526;2022-08-04T04:26:36;1.58;;;1.42;;
27684;SDS011;46113;50.130;8.526;2022-08-04T04:34:45;2.07;;;1.87;;
27684;SDS011;46113;50.130;8.526;2022-08-04T04:43:42;2.38;;;1.42;;
27684;SDS011;46113;50.130;8.526;2022-08-04T04:49:04;2.88;;;2.33;;
27684;SDS011;46113;50.130;8.526;2022-08-04T04:51:43;5.68;;;1.80;;
27684;SDS011;46113;50.130;8.526;2022-08-04T04:55:20;2.65;;;1.70;;
27684;SDS011;46113;50.130;8.526;2022-08-04T04:57:22;1.65;;;1.55;;
27684;SDS011;46113;50.130;8.526;2022-08-04T05:00:11;2.22;;;1.50;;
27684;SDS011;46113;50.130;8.526;2022-08-04T05:14:32;3.67;;;3.05;;
27684;SDS011;46113;50.130;8.526;2022-08-04T05:19:54;2.55;;;1.85;;
27684;SDS011;46113;50.130;8.526;2022-08-04T05:22:27;3.58;;;1.95;;
27684;SDS011;46113;50.130;8.526;2022-08-04T05:25:03;3.33;;;1.77;;
27684;SDS011;46113;50.130;8.526;2022-08-04T05:27:35;3.00;;;1.50;;
27684;SDS011;46113;50.130;8.526;2022-08-04T05:30:06;3.15;;;1.95;;
27684;SDS011;46113;50.130;8.526;2022-08-04T05:33:02;1.80;;;1.70;;
27684;SDS011;46113;50.130;8.526;2022-08-04T05:35:33;4.78;;;2.20;;
27684;SDS011;46113;50.130;8.526;2022-08-04T05:38:39;3.22;;;1.60;;
27684;SDS011;46113;50.130;8.526;2022-08-04T05:41:26;2.33;;;1.60;;
27684;SDS011;46113;50.130;8.526;2022-08-04T05:44:16;1.85;;;1.55;;
27684;SDS011;46113;50.130;8.526;2022-08-04T05:46:55;1.63;;;1.20;;
27684;SDS011;46113;50.130;8.526;2022-08-04T05:49:32;1.75;;;1.55;;
27684;SDS011;46113;50.130;8.526;2022-08-04T05:52:01;2.15;;;1.50;;
27684;SDS011;46113;50.130;8.526;2022-08-04T05:54:30;2.17;;;1.58;;
27684;SDS011;46113;50.130;8.526;2022-08-04T05:57:02;1.85;;;1.42;;
27684;SDS011;46113;50.130;8.526;2022-08-04T05:59:35;3.22;;;1.38;;
27684;SDS011;46113;50.130;8.526;2022-08-04T06:02:19;2.80;;;2.13;;
27684;SDS011;46113;50.130;8.526;2022-08-04T06:04:50;3.47;;;1.90;;
27684;SDS011;46113;50.130;8.526;2022-08-04T06:07:22;7.63;;;2.05;;
27684;SDS011;46113;50.130;8.526;2022-08-04T06:10:05;6.78;;;2.53;;
27684;SDS011;46113;50.130;8.526;2022-08-04T06:12:35;11.07;;;2.80;;
27684;SDS011;46113;50.130;8.526;2022-08-04T06:21:20;5.15;;;2.00;;
27684;SDS011;46113;50.130;8.526;2022-08-04T06:23:51;6.15;;;2.00;;
27684;SDS011;46113;50.130;8.526;2022-08-04T06:26:26;4.13;;;1.60;;
27684;SDS011;46113;50.130;8.526;2022-08-04T06:29:02;5.93;;;1.48;;
27684;SDS011;46113;50.130;8.526;2022-08-04T06:31:30;10.70;;;1.80;;
27684;SDS011;46113;50.130;8.526;2022-08-04T06:34:54;1.83;;;1.58;;
27684;SDS011;46113;50.130;8.526;2022-08-04T06:37:26;3.50;;;1.52;;
27684;SDS011;46113;50.130;8.526;2022-08-04T06:40:09;6.82;;;1.60;;
27684;SDS011;46113;50.130;8.526;2022-08-04T06:42:58;3.17;;;1.45;;
27684;SDS011;46113;50.130;8.526;2022-08-04T06:45:27;2.78;;;1.60;;
27684;SDS011;46113;50.130;8.526;2022-08-04T06:47:54;2.08;;;1.20;;
27684;SDS011;46113;50.130;8.526;2022-08-04T06:50:21;4.32;;;1.60;;
27684;SDS011;46113;50.130;8.526;2022-08-04T06:53:19;4.30;;;1.40;;
27684;SDS011;46113;50.130;8.526;2022-08-04T06:55:52;3.10;;;1.60;;
27684;SDS011;46113;50.130;8.526;2022-08-04T07:26:40;4.60;;;1.30;;
27684;SDS011;46113;50.130;8.526;2022-08-04T07:29:12;2.17;;;1.52;;
27684;SDS011;46113;50.130;8.526;2022-08-04T07:31:39;1.63;;;1.45;;
27684;SDS011;46113;50.130;8.526;2022-08-04T07:34:07;4.20;;;1.20;;
27684;SDS011;46113;50.130;8.526;2022-08-04T07:36:46;6.13;;;1.83;;
27684;SDS011;46113;50.130;8.526;2022-08-04T07:39:16;3.20;;;1.80;;
27684;SDS011;46113;50.130;8.526;2022-08-04T07:41:54;4.88;;;1.58;;
27684;SDS011;46113;50.130;8.526;2022-08-04T07:44:21;2.28;;;1.60;;
27684;SDS011;46113;50.130;8.526;2022-08-04T07:49:40;1.73;;;1.40;;
27684;SDS011;46113;50.130;8.526;2022-08-04T07:56:03;1.83;;;1.40;;
27684;SDS011;46113;50.130;8.526;2022-08-04T08:06:42;2.78;;;1.70;;
27684;SDS011;46113;50.130;8.526;2022-08-04T08:09:13;5.15;;;1.70;;
27684;SDS011;46113;50.130;8.526;2022-08-04T08:11:44;2.15;;;1.50;;
27684;SDS011;46113;50.130;8.526;2022-08-04T08:14:32;1.35;;;1.15;;
27684;SDS011;46113;50.130;8.526;2022-08-04T08:20:18;2.22;;;1.70;;
27684;SDS011;46113;50.130;8.526;2022-08-04T08:26:27;1.58;;;1.45;;
27684;SDS011;46113;50.130;8.526;2022-08-04T08:28:55;1.67;;;1.38;;
27684;SDS011;46113;50.130;8.526;2022-08-04T08:31:22;1.25;;;1.17;;
27684;SDS011;46113;50.130;8.526;2022-08-04T08:34:10;2.42;;;1.48;;
27684;SDS011;46113;50.130;8.526;2022-08-04T08:40:03;2.80;;;1.83;;
27684;SDS011;46113;50.130;8.526;2022-08-04T08:43:22;1.30;;;1.20;;
27684;SDS011;46113;50.130;8.526;2022-08-04T08:59:15;3.45;;;1.50;;
27684;SDS011;46113;50.130;8.526;2022-08-04T09:02:20;3.00;;;1.67;;
27684;SDS011;46113;50.130;8.526;2022-08-04T09:18:31;2.92;;;1.80;;
27684;SDS011;46113;50.130;8.526;2022-08-04T09:24:24;4.65;;;1.77;;
27684;SDS011;46113;50.130;8.526;2022-08-04T09:27:02;1.80;;;1.70;;
27684;SDS011;46113;50.130;8.526;2022-08-04T09:46:34;3.30;;;1.80;;
27684;SDS011;46113;50.130;8.526;2022-08-04T09:54:32;4.97;;;1.73;;
27684;SDS011;46113;50.130;8.526;2022-08-04T10:00:03;2.60;;;1.67;;
27684;SDS011;46113;50.130;8.526;2022-08-04T10:02:49;3.85;;;2.00;;
27684;SDS011;46113;50.130;8.526;2022-08-04T10:05:21;2.00;;;1.80;;
27684;SDS011;46113;50.130;8.526;2022-08-04T10:19:40;1.65;;;1.40;;
27684;SDS011;46113;50.130;8.526;2022-08-04T10:22:16;2.10;;;1.73;;
27684;SDS011;46113;50.130;8.526;2022-08-04T10:28:04;3.78;;;2.50;;
27684;SDS011;46113;50.130;8.526;2022-08-04T10:30:38;3.38;;;2.35;;
27684;SDS011;46113;50.130;8.526;2022-08-04T10:33:10;2.13;;;1.63;;
27684;SDS011;46113;50.130;8.526;2022-08-04T10:39:09;3.83;;;1.50;;
27684;SDS011;46113;50.130;8.526;2022-08-04T10:47:50;1.85;;;1.50;;
27684;SDS011;46113;50.130;8.526;2022-08-04T10:54:28;7.72;;;1.80;;
27684;SDS011;46113;50.130;8.526;2022-08-04T10:57:07;3.97;;;1.55;;
27684;SDS011;46113;50.130;8.526;2022-08-04T11:00:04;4.85;;;1.60;;
27684;SDS011;46113;50.130;8.526;2022-08-04T11:05:48;1.45;;;1.27;;
27684;SDS011;46113;50.130;8.526;2022-08-04T11:15:24;1.40;;;1.23;;
27684;SDS011;46113;50.130;8.526;2022-08-04T11:34:46;2.28;;;1.42;;
27684;SDS011;46113;50.130;8.526;2022-08-04T11:37:20;4.60;;;1.15;;
27684;SDS011;46113;50.130;8.526;2022-08-04T11:39:55;1.08;;;0.90;;
27684;SDS011;46113;50.130;8.526;2022-08-04T11:42:47;2.63;;;1.73;;
27684;SDS011;46113;50.130;8.526;2022-08-04T11:45:26;3.65;;;1.00;;
27684;SDS011;46113;50.130;8.526;2022-08-04T11:50:55;1.48;;;0.93;;
27684;SDS011;46113;50.130;8.526;2022-08-04T11:56:43;0.90;;;0.90;;
27684;SDS011;46113;50.130;8.526;2022-08-04T11:59:26;5.78;;;0.63;;
27684;SDS011;46113;50.130;8.526;2022-08-04T12:05:00;2.05;;;1.02;;
27684;SDS011;46113;50.130;8.526;2022-08-04T12:11:15;2.05;;;0.70;;
27684;SDS011;46113;50.130;8.526;2022-08-04T12:17:50;1.08;;;0.98;;
27684;SDS011;46113;50.130;8.526;2022-08-04T12:23:48;0.95;;;0.90;;
27684;SDS011;46113;50.130;8.526;2022-08-04T12:26:27;3.60;;;0.70;;
27684;SDS011;46113;50.130;8.526;2022-08-04T12:28:57;0.50;;;0.50;;
27684;SDS011;46113;50.130;8.526;2022-08-04T12:41:31;1.65;;;1.45;;
27684;SDS011;46113;50.130;8.526;2022-08-04T12:44:04;5.05;;;0.63;;
27684;SDS011;46113;50.130;8.526;2022-08-04T12:46:56;0.90;;;0.55;;
27684;SDS011;46113;50.130;8.526;2022-08-04T12:49:45;1.52;;;1.20;;
27684;SDS011;46113;50.130;8.526;2022-08-04T12:52:25;1.63;;;0.70;;
27684;SDS011;46113;50.130;8.526;2022-08-04T12:55:12;1.48;;;0.70;;
27684;SDS011;46113;50.130;8.526;2022-08-04T12:57:45;4.03;;;0.88;;
27684;SDS011;46113;50.130;8.526;2022-08-04T13:11:14;14.55;;;1.00;;
27684;SDS011;46113;50.130;8.526;2022-08-04T13:14:14;1.52;;;1.10;;
27684;SDS011;46113;50.130;8.526;2022-08-04T13:16:56;2.35;;;0.90;;
27684;SDS011;46113;50.130;8.526;2022-08-04T13:19:28;2.83;;;0.90;;
27684;SDS011;46113;50.130;8.526;2022-08-04T13:22:00;2.45;;;1.08;;
27684;SDS011;46113;50.130;8.526;2022-08-04T13:24:50;2.45;;;1.10;;
27684;SDS011;46113;50.130;8.526;2022-08-04T13:27:50;1.43;;;1.07;;
27684;SDS011;46113;50.130;8.526;2022-08-04T13:33:31;2.72;;;0.75;;
27684;SDS011;46113;50.130;8.526;2022-08-04T13:36:15;1.52;;;0.82;;
27684;SDS011;46113;50.130;8.526;2022-08-04T13:38:58;2.00;;;1.67;;
27684;SDS011;46113;50.130;8.526;2022-08-04T13:45:03;1.02;;;0.88;;
27684;SDS011;46113;50.130;8.526;2022-08-04T13:47:39;1.30;;;1.20;;
27684;SDS011;46113;50.130;8.526;2022-08-04T13:50:23;2.13;;;1.00;;
27684;SDS011;46113;50.130;8.526;2022-08-04T13:52:59;3.60;;;1.00;;
27684;SDS011;46113;50.130;8.526;2022-08-04T13:55:40;3.80;;;1.60;;
27684;SDS011;46113;50.130;8.526;2022-08-04T13:58:18;1.30;;;0.95;;
27684;SDS011;46113;50.130;8.526;2022-08-04T14:08:05;4.45;;;1.33;;
27684;SDS011;46113;50.130;8.526;2022-08-04T14:10:53;1.38;;;1.10;;
27684;SDS011;46113;50.130;8.526;2022-08-04T14:13:35;0.90;;;0.90;;
27684;SDS011;46113;50.130;8.526;2022-08-04T14:16:17;2.70;;;2.15;;
27684;SDS011;46113;50.130;8.526;2022-08-04T14:18:46;2.58;;;1.10;;
27684;SDS011;46113;50.130;8.526;2022-08-04T14:21:23;1.52;;;1.42;;
27684;SDS011;46113;50.130;8.526;2022-08-04T14:24:04;1.15;;;1.05;;
27684;SDS011;46113;50.130;8.526;2022-08-04T14:26:32;3.08;;;2.35;;
27684;SDS011;46113;50.130;8.526;2022-08-04T14:29:10;4.38;;;1.50;;
27684;SDS011;46113;50.130;8.526;2022-08-04T14:35:21;1.00;;;1.00;;
27684;SDS011;46113;50.130;8.526;2022-08-04T14:37:55;1.02;;;0.90;;
27684;SDS011;46113;50.130;8.526;2022-08-04T14:40:29;2.55;;;0.85;;
27684;SDS011;46113;50.130;8.526;2022-08-04T14:42:59;1.63;;;1.05;;
27684;SDS011;46113;50.130;8.526;2022-08-04T14:45:35;2.35;;;1.00;;
27684;SDS011;46113;50.130;8.526;2022-08-04T14:48:07;10.73;;;1.33;;
27684;SDS011;46113;50.130;8.526;2022-08-04T14:50:36;1.13;;;0.90;;
27684;SDS011;46113;50.130;8.526;2022-08-04T14:53:06;2.33;;;1.10;;
27684;SDS011;46113;50.130;8.526;2022-08-04T14:55:35;1.02;;;1.02;;
27684;SDS011;46113;50.130;8.526;2022-08-04T14:58:02;1.13;;;1.00;;
27684;SDS011;46113;50.130;8.526;2022-08-04T15:00:51;2.35;;;0.95;;
27684;SDS011;46113;50.130;8.526;2022-08-04T15:03:20;1.52;;;0.98;;
27684;SDS011;46113;50.130;8.526;2022-08-04T15:05:50;4.25;;;1.48;;
27684;SDS011;46113;50.130;8.526;2022-08-04T15:08:30;3.50;;;1.95;;
27684;SDS011;46113;50.130;8.526;2022-08-04T15:10:58;1.35;;;1.23;;
27684;SDS011;46113;50.130;8.526;2022-08-04T15:13:28;1.88;;;1.45;;
27684;SDS011;46113;50.130;8.526;2022-08-04T15:15:57;8.43;;;1.33;;
27684;SDS011;46113;50.130;8.526;2022-08-04T15:18:34;0.95;;;0.95;;
27684;SDS011;46113;50.130;8.526;2022-08-04T15:21:02;6.22;;;1.00;;
27684;SDS011;46113;50.130;8.526;2022-08-04T15:23:29;1.88;;;1.10;;
27684;SDS011;46113;50.130;8.526;2022-08-04T15:26:04;1.10;;;1.05;;
27684;SDS011;46113;50.130;8.526;2022-08-04T15:28:34;1.02;;;0.90;;
27684;SDS011;46113;50.130;8.526;2022-08-04T15:31:04;1.02;;;0.80;;
27684;SDS011;46113;50.130;8.526;2022-08-04T15:33:54;2.47;;;0.93;;
27684;SDS011;46113;50.130;8.526;2022-08-04T15:36:42;1.17;;;0.90;;
27684;SDS011;46113;50.130;8.526;2022-08-04T15:50:58;0.95;;;0.90;;
27684;SDS011;46113;50.130;8.526;2022-08-04T15:53:32;1.90;;;0.88;;
27684;SDS011;46113;50.130;8.526;2022-08-04T15:58:55;1.10;;;0.95;;
27684;SDS011;46113;50.130;8.526;2022-08-04T16:01:23;1.00;;;0.68;;
27684;SDS011;46113;50.130;8.526;2022-08-04T16:03:50;1.02;;;0.95;;
27684;SDS011;46113;50.130;8.526;2022-08-04T16:09:02;3.20;;;1.10;;
27684;SDS011;46113;50.130;8.526;2022-08-04T16:19:08;2.80;;;1.00;;
27684;SDS011;46113;50.130;8.526;2022-08-04T16:21:48;1.10;;;0.73;;
27684;SDS011;46113;50.130;8.526;2022-08-04T16:26:51;2.88;;;1.00;;
27684;SDS011;46113;50.130;8.526;2022-08-04T16:34:38;0.93;;;0.93;;
27684;SDS011;46113;50.130;8.526;2022-08-04T16:37:20;2.92;;;1.10;;
27684;SDS011;46113;50.130;8.526;2022-08-04T16:39:49;4.47;;;1.17;;
27684;SDS011;46113;50.130;8.526;2022-08-04T16:43:16;1.08;;;0.98;;
27684;SDS011;46113;50.130;8.526;2022-08-04T16:45:45;1.73;;;0.85;;
27684;SDS011;46113;50.130;8.526;2022-08-04T16:48:20;0.73;;;0.73;;
27684;SDS011;46113;50.130;8.526;2022-08-04T16:50:53;2.35;;;0.80;;
27684;SDS011;46113;50.130;8.526;2022-08-04T16:56:32;0.70;;;0.70;;
27684;SDS011;46113;50.130;8.526;2022-08-04T16:59:04;1.00;;;0.90;;
27684;SDS011;46113;50.130;8.526;2022-08-04T17:01:33;1.30;;;0.93;;
27684;SDS011;46113;50.130;8.526;2022-08-04T17:04:02;1.67;;;0.70;;
27684;SDS011;46113;50.130;8.526;2022-08-04T17:06:34;0.90;;;0.82;;
27684;SDS011;46113;50.130;8.526;2022-08-04T17:09:06;0.65;;;0.65;;
27684;SDS011;46113;50.130;8.526;2022-08-04T17:11:38;0.82;;;0.82;;
27684;SDS011;46113;50.130;8.526;2022-08-04T17:14:05;3.03;;;1.00;;
27684;SDS011;46113;50.130;8.526;2022-08-04T17:16:34;2.92;;;1.02;;
27684;SDS011;46113;50.130;8.526;2022-08-04T17:19:02;1.05;;;0.82;;
27684;SDS011;46113;50.130;8.526;2022-08-04T17:21:31;4.45;;;1.15;;
27684;SDS011;46113;50.130;8.526;2022-08-04T17:24:00;2.03;;;0.80;;
27684;SDS011;46113;50.130;8.526;2022-08-04T17:26:44;4.43;;;0.80;;
27684;SDS011;46113;50.130;8.526;2022-08-04T17:29:33;2.03;;;1.10;;
27684;SDS011;46113;50.130;8.526;2022-08-04T17:32:16;0.98;;;0.80;;
27684;SDS011;46113;50.130;8.526;2022-08-04T17:34:50;2.42;;;1.05;;
27684;SDS011;46113;50.130;8.526;2022-08-04T17:40:10;2.30;;;1.00;;
27684;SDS011;46113;50.130;8.526;2022-08-04T17:42:40;4.75;;;1.10;;
27684;SDS011;46113;50.130;8.526;2022-08-04T17:45:12;1.23;;;0.98;;
27684;SDS011;46113;50.130;8.526;2022-08-04T17:48:04;0.90;;;0.90;;
27684;SDS011;46113;50.130;8.526;2022-08-04T17:50:33;2.80;;;1.02;;
27684;SDS011;46113;50.130;8.526;2022-08-04T17:53:04;6.60;;;1.38;;
27684;SDS011;46113;50.130;8.526;2022-08-04T17:55:41;1.30;;;1.20;;
27684;SDS011;46113;50.130;8.526;2022-08-04T17:58:19;3.95;;;1.33;;
27684;SDS011;46113;50.130;8.526;2022-08-04T18:01:00;3.63;;;0.95;;
27684;SDS011;46113;50.130;8.526;2022-08-04T18:03:47;1.00;;;0.90;;
27684;SDS011;46113;50.130;8.526;2022-08-04T18:06:22;0.93;;;0.80;;
27684;SDS011;46113;50.130;8.526;2022-08-04T18:08:54;4.93;;;1.10;;
27684;SDS011;46113;50.130;8.526;2022-08-04T18:11:49;1.20;;;1.13;;
27684;SDS011;46113;50.130;8.526;2022-08-04T18:14:17;3.50;;;1.10;;
27684;SDS011;46113;50.130;8.526;2022-08-04T18:16:53;4.85;;;0.85;;
27684;SDS011;46113;50.130;8.526;2022-08-04T18:19:21;1.35;;;0.93;;
27684;SDS011;46113;50.130;8.526;2022-08-04T18:21:47;1.50;;;1.40;;
27684;SDS011;46113;50.130;8.526;2022-08-04T18:24:30;2.85;;;1.65;;
27684;SDS011;46113;50.130;8.526;2022-08-04T18:27:19;6.68;;;1.40;;
27684;SDS011;46113;50.130;8.526;2022-08-04T18:29:49;2.35;;;0.82;;
27684;SDS011;46113;50.130;8.526;2022-08-04T18:32:36;1.25;;;1.15;;
27684;SDS011;46113;50.130;8.526;2022-08-04T18:35:23;1.58;;;1.38;;
27684;SDS011;46113;50.130;8.526;2022-08-04T18:38:09;3.70;;;1.02;;
27684;SDS011;46113;50.130;8.526;2022-08-04T18:40:49;1.23;;;1.20;;
27684;SDS011;46113;50.130;8.526;2022-08-04T18:43:22;1.25;;;0.90;;
27684;SDS011;46113;50.130;8.526;2022-08-04T18:45:58;0.90;;;0.88;;
27684;SDS011;46113;50.130;8.526;2022-08-04T18:48:25;1.35;;;1.00;;
27684;SDS011;46113;50.130;8.526;2022-08-04T18:51:02;1.55;;;1.00;;
27684;SDS011;46113;50.130;8.526;2022-08-04T18:53:38;1.50;;;0.90;;
27684;SDS011;46113;50.130;8.526;2022-08-04T18:56:11;4.00;;;1.45;;
27684;SDS011;46113;50.130;8.526;2022-08-04T18:58:55;1.23;;;1.02;;
27684;SDS011;46113;50.130;8.526;2022-08-04T19:01:25;4.15;;;0.90;;
27684;SDS011;46113;50.130;8.526;2022-08-04T19:07:06;1.15;;;0.77;;
27684;SDS011;46113;50.130;8.526;2022-08-04T19:09:53;4.80;;;0.80;;
27684;SDS011;46113;50.130;8.526;2022-08-04T19:12:23;5.03;;;1.27;;
27684;SDS011;46113;50.130;8.526;2022-08-04T19:14:53;1.23;;;1.13;;
27684;SDS011;46113;50.130;8.526;2022-08-04T19:17:33;3.15;;;1.70;;
27684;SDS011;46113;50.130;8.526;2022-08-04T19:20:19;1.20;;;1.10;;
27684;SDS011;46113;50.130;8.526;2022-08-04T19:22:51;2.65;;;1.27;;
27684;SDS011;46113;50.130;8.526;2022-08-04T19:25:38;1.67;;;0.88;;
27684;SDS011;46113;50.130;8.526;2022-08-04T19:28:25;0.70;;;0.70;;
27684;SDS011;46113;50.130;8.526;2022-08-04T19:30:55;2.25;;;1.30;;
27684;SDS011;46113;50.130;8.526;2022-08-04T19:33:23;2.13;;;1.17;;
27684;SDS011;46113;50.130;8.526;2022-08-04T19:35:54;5.13;;;1.30;;
27684;SDS011;46113;50.130;8.526;2022-08-04T19:38:22;1.63;;;1.05;;
27684;SDS011;46113;50.130;8.526;2022-08-04T19:40:49;4.43;;;1.30;;
27684;SDS011;46113;50.130;8.526;2022-08-04T19:43:19;3.17;;;1.20;;
27684;SDS011;46113;50.130;8.526;2022-08-04T19:45:48;4.10;;;1.10;;
27684;SDS011;46113;50.130;8.526;2022-08-04T19:48:15;2.58;;;1.00;;
27684;SDS011;46113;50.130;8.526;2022-08-04T19:50:47;1.40;;;0.95;;
27684;SDS011;46113;50.130;8.526;2022-08-04T19:53:14;2.75;;;1.35;;
27684;SDS011;46113;50.130;8.526;2022-08-04T19:59:08;7.90;;;1.52;;
27684;SDS011;46113;50.130;8.526;2022-08-04T20:01:36;2.15;;;1.50;;
27684;SDS011;46113;50.130;8.526;2022-08-04T20:04:10;1.75;;;1.60;;
27684;SDS011;46113;50.130;8.526;2022-08-04T20:06:37;2.92;;;1.35;;
27684;SDS011;46113;50.130;8.526;2022-08-04T20:09:04;2.13;;;1.70;;
27684;SDS011;46113;50.130;8.526;2022-08-04T20:14:38;2.40;;;1.40;;
27684;SDS011;46113;50.130;8.526;2022-08-04T20:17:05;2.97;;;1.45;;
27684;SDS011;46113;50.130;8.526;2022-08-04T20:19:35;1.25;;;1.13;;
27684;SDS011;46113;50.130;8.526;2022-08-04T20:22:04;3.45;;;1.35;;
27684;SDS011;46113;50.130;8.526;2022-08-04T20:24:51;1.90;;;1.48;;
27684;SDS011;46113;50.130;8.526;2022-08-04T20:27:36;2.80;;;1.55;;
27684;SDS011;46113;50.130;8.526;2022-08-04T20:30:23;1.60;;;1.50;;
27684;SDS011;46113;50.130;8.526;2022-08-04T20:32:53;3.65;;;1.45;;
27684;SDS011;46113;50.130;8.526;2022-08-04T20:35:20;2.88;;;1.80;;
27684;SDS011;46113;50.130;8.526;2022-08-04T20:37:52;2.00;;;1.48;;
27684;SDS011;46113;50.130;8.526;2022-08-04T20:40:25;3.60;;;1.60;;
27684;SDS011;46113;50.130;8.526;2022-08-04T20:42:52;1.58;;;1.40;;
27684;SDS011;46113;50.130;8.526;2022-08-04T20:45:22;2.05;;;1.45;;
27684;SDS011;46113;50.130;8.526;2022-08-04T20:48:09;1.58;;;1.25;;
27684;SDS011;46113;50.130;8.526;2022-08-04T20:50:35;1.63;;;1.52;;
27684;SDS011;46113;50.130;8.526;2022-08-04T20:53:04;2.65;;;1.20;;
27684;SDS011;46113;50.130;8.526;2022-08-04T20:55:42;4.20;;;1.25;;
27684;SDS011;46113;50.130;8.526;2022-08-04T20:58:29;3.83;;;1.45;;
27684;SDS011;46113;50.130;8.526;2022-08-04T21:00:56;1.60;;;1.50;;
27684;SDS011;46113;50.130;8.526;2022-08-04T21:03:23;1.55;;;1.38;;
27684;SDS011;46113;50.130;8.526;2022-08-04T21:06:10;3.55;;;1.40;;
27684;SDS011;46113;50.130;8.526;2022-08-04T21:08:36;1.30;;;1.20;;
27684;SDS011;46113;50.130;8.526;2022-08-04T21:11:05;4.28;;;1.52;;
27684;SDS011;46113;50.130;8.526;2022-08-04T21:13:34;2.22;;;1.60;;
27684;SDS011;46113;50.130;8.526;2022-08-04T21:16:21;5.38;;;1.52;;
27684;SDS011;46113;50.130;8.526;2022-08-04T21:19:15;2.38;;;1.63;;
27684;SDS011;46113;50.130;8.526;2022-08-04T21:21:47;3.42;;;1.50;;
27684;SDS011;46113;50.130;8.526;2022-08-04T21:24:19;2.53;;;1.45;;
27684;SDS011;46113;50.130;8.526;2022-08-04T21:26:52;1.73;;;1.27;;
27684;SDS011;46113;50.130;8.526;2022-08-04T21:29:22;3.88;;;1.45;;
27684;SDS011;46113;50.130;8.526;2022-08-04T21:32:01;2.80;;;1.35;;
27684;SDS011;46113;50.130;8.526;2022-08-04T21:34:33;2.30;;;1.80;;
27684;SDS011;46113;50.130;8.526;2022-08-04T21:37:05;5.23;;;1.37;;
27684;SDS011;46113;50.130;8.526;2022-08-04T21:39:38;4.63;;;1.30;;
27684;SDS011;46113;50.130;8.526;2022-08-04T21:42:24;2.63;;;1.40;;
27684;SDS011;46113;50.130;8.526;2022-08-04T21:44:55;3.47;;;1.58;;
27684;SDS011;46113;50.130;8.526;2022-08-04T21:47:23;3.50;;;1.90;;
27684;SDS011;46113;50.130;8.526;2022-08-04T21:49:49;4.10;;;1.85;;
27684;SDS011;46113;50.130;8.526;2022-08-04T21:52:22;1.60;;;1.38;;
27684;SDS011;46113;50.130;8.526;2022-08-04T21:54:50;7.10;;;1.48;;
27684;SDS011;46113;50.130;8.526;2022-08-04T21:57:20;3.63;;;1.67;;
27684;SDS011;46113;50.130;8.526;2022-08-04T21:59:50;5.80;;;1.55;;
